sensor_id;sensor_type;location;lat;lon;timestamp;P1;durP1;ratioP1;P2;durP2;ratioP2
19507;SDS011;40157;42.566;27.526;2023-09-18T00:01:21;5.95;;;2.58;;
19507;SDS011;40157;42.566;27.526;2023-09-18T00:03:21;5.57;;;2.80;;
19507;SDS011;40157;42.566;27.526;2023-09-18T00:05:24;5.40;;;2.80;;
19507;SDS011;40157;42.566;27.526;2023-09-18T00:07:25;5.43;;;2.90;;
19507;SDS011;40157;42.566;27.526;2023-09-18T00:09:25;8.07;;;2.80;;
19507;SDS011;40157;42.566;27.526;2023-09-18T00:11:26;3.70;;;2.72;;
19507;SDS011;40157;42.566;27.526;2023-09-18T00:13:27;4.93;;;3.33;;
19507;SDS011;40157;42.566;27.526;2023-09-18T00:15:27;8.15;;;2.88;;
19507;SDS011;40157;42.566;27.526;2023-09-18T00:17:28;5.15;;;2.63;;
19507;SDS011;40157;42.566;27.526;2023-09-18T00:19:28;5.85;;;2.88;;
19507;SDS011;40157;42.566;27.526;2023-09-18T00:21:29;5.55;;;3.15;;
19507;SDS011;40157;42.566;27.526;2023-09-18T00:23:30;9.93;;;2.90;;
19507;SDS011;40157;42.566;27.526;2023-09-18T00:25:31;5.68;;;3.10;;
19507;SDS011;40157;42.566;27.526;2023-09-18T00:27:32;6.25;;;3.15;;
19507;SDS011;40157;42.566;27.526;2023-09-18T00:29:32;5.45;;;2.80;;
19507;SDS011;40157;42.566;27.526;2023-09-18T00:31:33;3.70;;;2.80;;
19507;SDS011;40157;42.566;27.526;2023-09-18T00:33:33;6.95;;;2.90;;
19507;SDS011;40157;42.566;27.526;2023-09-18T00:35:34;5.10;;;3.08;;
19507;SDS011;40157;42.566;27.526;2023-09-18T00:37:34;5.10;;;3.10;;
19507;SDS011;40157;42.566;27.526;2023-09-18T00:39:37;11.02;;;2.78;;
19507;SDS011;40157;42.566;27.526;2023-09-18T00:41:37;7.18;;;3.40;;
19507;SDS011;40157;42.566;27.526;2023-09-18T00:43:38;6.07;;;3.00;;
19507;SDS011;40157;42.566;27.526;2023-09-18T00:45:40;7.80;;;3.63;;
19507;SDS011;40157;42.566;27.526;2023-09-18T00:47:42;8.32;;;3.38;;
19507;SDS011;40157;42.566;27.526;2023-09-18T00:49:44;4.28;;;2.78;;
19507;SDS011;40157;42.566;27.526;2023-09-18T00:51:47;6.32;;;2.97;;
19507;SDS011;40157;42.566;27.526;2023-09-18T00:53:48;5.72;;;2.90;;
19507;SDS011;40157;42.566;27.526;2023-09-18T00:55:50;6.85;;;2.45;;
19507;SDS011;40157;42.566;27.526;2023-09-18T00:57:54;6.47;;;2.63;;
19507;SDS011;40157;42.566;27.526;2023-09-18T00:59:55;4.03;;;3.03;;
19507;SDS011;40157;42.566;27.526;2023-09-18T01:01:56;6.93;;;2.85;;
19507;SDS011;40157;42.566;27.526;2023-09-18T01:03:56;4.45;;;2.92;;
19507;SDS011;40157;42.566;27.526;2023-09-18T01:05:58;3.58;;;2.55;;
19507;SDS011;40157;42.566;27.526;2023-09-18T01:07:59;4.00;;;3.00;;
19507;SDS011;40157;42.566;27.526;2023-09-18T01:09:59;6.53;;;2.90;;
19507;SDS011;40157;42.566;27.526;2023-09-18T01:14:05;4.55;;;2.83;;
19507;SDS011;40157;42.566;27.526;2023-09-18T01:16:24;5.00;;;2.63;;
19507;SDS011;40157;42.566;27.526;2023-09-18T01:18:27;5.40;;;3.08;;
19507;SDS011;40157;42.566;27.526;2023-09-18T01:20:27;5.45;;;2.90;;
19507;SDS011;40157;42.566;27.526;2023-09-18T01:22:29;6.00;;;3.13;;
19507;SDS011;40157;42.566;27.526;2023-09-18T01:24:32;8.95;;;3.10;;
19507;SDS011;40157;42.566;27.526;2023-09-18T01:26:33;5.97;;;2.80;;
19507;SDS011;40157;42.566;27.526;2023-09-18T01:28:33;8.90;;;3.40;;
19507;SDS011;40157;42.566;27.526;2023-09-18T01:30:34;8.77;;;3.55;;
19507;SDS011;40157;42.566;27.526;2023-09-18T01:32:34;6.20;;;3.00;;
19507;SDS011;40157;42.566;27.526;2023-09-18T01:34:42;6.57;;;2.90;;
19507;SDS011;40157;42.566;27.526;2023-09-18T01:36:46;5.82;;;2.83;;
19507;SDS011;40157;42.566;27.526;2023-09-18T01:38:48;5.65;;;2.60;;
19507;SDS011;40157;42.566;27.526;2023-09-18T01:40:51;7.93;;;3.00;;
19507;SDS011;40157;42.566;27.526;2023-09-18T01:42:53;7.13;;;3.15;;
19507;SDS011;40157;42.566;27.526;2023-09-18T01:44:54;6.15;;;3.00;;
19507;SDS011;40157;42.566;27.526;2023-09-18T01:46:59;11.57;;;3.17;;
19507;SDS011;40157;42.566;27.526;2023-09-18T01:49:02;4.95;;;3.08;;
19507;SDS011;40157;42.566;27.526;2023-09-18T01:51:03;3.83;;;2.80;;
19507;SDS011;40157;42.566;27.526;2023-09-18T01:53:04;4.47;;;3.05;;
19507;SDS011;40157;42.566;27.526;2023-09-18T01:55:04;6.47;;;3.35;;
19507;SDS011;40157;42.566;27.526;2023-09-18T01:57:05;10.82;;;3.53;;
19507;SDS011;40157;42.566;27.526;2023-09-18T01:59:07;11.50;;;3.60;;
19507;SDS011;40157;42.566;27.526;2023-09-18T02:01:07;4.55;;;3.47;;
19507;SDS011;40157;42.566;27.526;2023-09-18T02:03:08;5.80;;;3.15;;
19507;SDS011;40157;42.566;27.526;2023-09-18T02:05:08;7.65;;;3.28;;
19507;SDS011;40157;42.566;27.526;2023-09-18T02:07:09;4.93;;;2.83;;
19507;SDS011;40157;42.566;27.526;2023-09-18T02:09:09;5.05;;;3.10;;
19507;SDS011;40157;42.566;27.526;2023-09-18T02:11:10;5.28;;;2.70;;
19507;SDS011;40157;42.566;27.526;2023-09-18T02:13:10;5.32;;;3.00;;
19507;SDS011;40157;42.566;27.526;2023-09-18T02:15:10;5.53;;;3.00;;
19507;SDS011;40157;42.566;27.526;2023-09-18T02:17:11;6.22;;;3.42;;
19507;SDS011;40157;42.566;27.526;2023-09-18T02:19:12;7.72;;;3.55;;
19507;SDS011;40157;42.566;27.526;2023-09-18T02:21:20;7.80;;;3.53;;
19507;SDS011;40157;42.566;27.526;2023-09-18T02:23:21;5.50;;;3.05;;
19507;SDS011;40157;42.566;27.526;2023-09-18T02:25:22;5.68;;;3.30;;
19507;SDS011;40157;42.566;27.526;2023-09-18T02:27:22;6.97;;;3.35;;
19507;SDS011;40157;42.566;27.526;2023-09-18T02:29:22;5.10;;;3.17;;
19507;SDS011;40157;42.566;27.526;2023-09-18T02:31:23;8.07;;;3.38;;
19507;SDS011;40157;42.566;27.526;2023-09-18T02:33:23;6.20;;;3.53;;
19507;SDS011;40157;42.566;27.526;2023-09-18T02:35:24;4.75;;;3.47;;
19507;SDS011;40157;42.566;27.526;2023-09-18T02:37:24;5.32;;;3.22;;
19507;SDS011;40157;42.566;27.526;2023-09-18T02:39:25;7.35;;;3.78;;
19507;SDS011;40157;42.566;27.526;2023-09-18T02:41:25;8.43;;;3.63;;
19507;SDS011;40157;42.566;27.526;2023-09-18T02:43:26;6.03;;;3.42;;
19507;SDS011;40157;42.566;27.526;2023-09-18T02:45:26;8.98;;;3.90;;
19507;SDS011;40157;42.566;27.526;2023-09-18T02:47:27;6.05;;;3.22;;
19507;SDS011;40157;42.566;27.526;2023-09-18T02:49:27;7.50;;;3.70;;
19507;SDS011;40157;42.566;27.526;2023-09-18T02:51:27;5.53;;;3.15;;
19507;SDS011;40157;42.566;27.526;2023-09-18T02:53:28;5.97;;;3.05;;
19507;SDS011;40157;42.566;27.526;2023-09-18T02:55:29;5.07;;;3.17;;
19507;SDS011;40157;42.566;27.526;2023-09-18T02:57:29;4.38;;;3.22;;
19507;SDS011;40157;42.566;27.526;2023-09-18T02:59:30;6.55;;;3.50;;
19507;SDS011;40157;42.566;27.526;2023-09-18T03:01:31;9.73;;;3.72;;
19507;SDS011;40157;42.566;27.526;2023-09-18T03:03:31;4.60;;;3.40;;
19507;SDS011;40157;42.566;27.526;2023-09-18T03:05:33;5.25;;;3.60;;
19507;SDS011;40157;42.566;27.526;2023-09-18T03:07:34;5.53;;;3.40;;
19507;SDS011;40157;42.566;27.526;2023-09-18T03:09:34;6.72;;;3.50;;
19507;SDS011;40157;42.566;27.526;2023-09-18T03:11:36;8.82;;;3.80;;
19507;SDS011;40157;42.566;27.526;2023-09-18T03:13:36;5.70;;;3.70;;
19507;SDS011;40157;42.566;27.526;2023-09-18T03:15:37;6.63;;;3.90;;
19507;SDS011;40157;42.566;27.526;2023-09-18T03:17:38;8.80;;;3.53;;
19507;SDS011;40157;42.566;27.526;2023-09-18T03:19:41;4.90;;;3.00;;
19507;SDS011;40157;42.566;27.526;2023-09-18T03:21:41;6.03;;;3.70;;
19507;SDS011;40157;42.566;27.526;2023-09-18T03:23:41;6.75;;;3.55;;
19507;SDS011;40157;42.566;27.526;2023-09-18T03:25:42;4.75;;;3.42;;
19507;SDS011;40157;42.566;27.526;2023-09-18T03:27:42;6.75;;;3.75;;
19507;SDS011;40157;42.566;27.526;2023-09-18T03:29:43;7.28;;;3.58;;
19507;SDS011;40157;42.566;27.526;2023-09-18T03:31:43;8.65;;;4.05;;
19507;SDS011;40157;42.566;27.526;2023-09-18T03:33:43;6.53;;;4.10;;
19507;SDS011;40157;42.566;27.526;2023-09-18T03:35:51;6.93;;;3.78;;
19507;SDS011;40157;42.566;27.526;2023-09-18T03:37:54;6.03;;;3.53;;
19507;SDS011;40157;42.566;27.526;2023-09-18T03:39:54;8.45;;;4.35;;
19507;SDS011;40157;42.566;27.526;2023-09-18T03:41:55;5.47;;;3.80;;
19507;SDS011;40157;42.566;27.526;2023-09-18T03:43:55;7.85;;;4.07;;
19507;SDS011;40157;42.566;27.526;2023-09-18T03:46:02;6.90;;;4.00;;
19507;SDS011;40157;42.566;27.526;2023-09-18T03:48:06;7.20;;;3.90;;
19507;SDS011;40157;42.566;27.526;2023-09-18T03:50:10;6.85;;;3.97;;
19507;SDS011;40157;42.566;27.526;2023-09-18T03:52:11;8.35;;;4.07;;
19507;SDS011;40157;42.566;27.526;2023-09-18T03:54:11;5.22;;;3.75;;
19507;SDS011;40157;42.566;27.526;2023-09-18T03:56:11;6.03;;;4.07;;
19507;SDS011;40157;42.566;27.526;2023-09-18T03:58:12;7.03;;;4.00;;
19507;SDS011;40157;42.566;27.526;2023-09-18T04:00:13;7.55;;;4.05;;
19507;SDS011;40157;42.566;27.526;2023-09-18T04:02:13;6.70;;;4.15;;
19507;SDS011;40157;42.566;27.526;2023-09-18T04:04:14;7.97;;;4.63;;
19507;SDS011;40157;42.566;27.526;2023-09-18T04:06:14;7.47;;;4.28;;
19507;SDS011;40157;42.566;27.526;2023-09-18T04:08:14;8.32;;;4.22;;
19507;SDS011;40157;42.566;27.526;2023-09-18T04:10:15;7.20;;;4.00;;
19507;SDS011;40157;42.566;27.526;2023-09-18T04:12:19;6.95;;;3.85;;
19507;SDS011;40157;42.566;27.526;2023-09-18T04:14:20;6.95;;;3.97;;
19507;SDS011;40157;42.566;27.526;2023-09-18T04:16:20;6.10;;;4.25;;
19507;SDS011;40157;42.566;27.526;2023-09-18T04:18:20;9.40;;;4.38;;
19507;SDS011;40157;42.566;27.526;2023-09-18T04:20:21;7.72;;;4.03;;
19507;SDS011;40157;42.566;27.526;2023-09-18T04:22:22;6.75;;;4.05;;
19507;SDS011;40157;42.566;27.526;2023-09-18T04:24:23;6.22;;;4.60;;
19507;SDS011;40157;42.566;27.526;2023-09-18T04:26:24;7.07;;;4.55;;
19507;SDS011;40157;42.566;27.526;2023-09-18T04:28:29;7.32;;;4.40;;
19507;SDS011;40157;42.566;27.526;2023-09-18T04:30:30;6.85;;;4.50;;
19507;SDS011;40157;42.566;27.526;2023-09-18T04:32:31;7.07;;;4.22;;
19507;SDS011;40157;42.566;27.526;2023-09-18T04:34:31;7.40;;;4.50;;
19507;SDS011;40157;42.566;27.526;2023-09-18T04:36:32;7.20;;;4.25;;
19507;SDS011;40157;42.566;27.526;2023-09-18T04:38:32;7.70;;;4.70;;
19507;SDS011;40157;42.566;27.526;2023-09-18T04:40:32;9.80;;;4.85;;
19507;SDS011;40157;42.566;27.526;2023-09-18T04:42:33;9.38;;;3.97;;
19507;SDS011;40157;42.566;27.526;2023-09-18T04:44:34;9.00;;;4.07;;
19507;SDS011;40157;42.566;27.526;2023-09-18T04:46:34;6.63;;;4.22;;
19507;SDS011;40157;42.566;27.526;2023-09-18T04:48:35;9.00;;;4.80;;
19507;SDS011;40157;42.566;27.526;2023-09-18T04:50:36;7.38;;;4.38;;
19507;SDS011;40157;42.566;27.526;2023-09-18T04:52:36;10.77;;;4.82;;
19507;SDS011;40157;42.566;27.526;2023-09-18T04:54:37;8.80;;;4.43;;
19507;SDS011;40157;42.566;27.526;2023-09-18T04:56:37;7.68;;;4.45;;
19507;SDS011;40157;42.566;27.526;2023-09-18T04:58:38;8.30;;;4.65;;
19507;SDS011;40157;42.566;27.526;2023-09-18T05:00:39;6.70;;;4.25;;
19507;SDS011;40157;42.566;27.526;2023-09-18T05:02:39;7.07;;;4.80;;
19507;SDS011;40157;42.566;27.526;2023-09-18T05:04:40;6.47;;;4.72;;
19507;SDS011;40157;42.566;27.526;2023-09-18T05:06:40;13.00;;;4.80;;
19507;SDS011;40157;42.566;27.526;2023-09-18T05:08:42;7.60;;;4.57;;
19507;SDS011;40157;42.566;27.526;2023-09-18T05:10:44;7.50;;;4.40;;
19507;SDS011;40157;42.566;27.526;2023-09-18T05:12:44;9.55;;;5.00;;
19507;SDS011;40157;42.566;27.526;2023-09-18T05:14:45;9.25;;;4.80;;
19507;SDS011;40157;42.566;27.526;2023-09-18T05:16:46;8.73;;;5.28;;
19507;SDS011;40157;42.566;27.526;2023-09-18T05:18:46;9.95;;;5.20;;
19507;SDS011;40157;42.566;27.526;2023-09-18T05:20:47;9.45;;;5.53;;
19507;SDS011;40157;42.566;27.526;2023-09-18T05:22:47;8.27;;;5.50;;
19507;SDS011;40157;42.566;27.526;2023-09-18T05:24:48;9.00;;;5.38;;
19507;SDS011;40157;42.566;27.526;2023-09-18T05:26:48;15.63;;;6.47;;
19507;SDS011;40157;42.566;27.526;2023-09-18T05:28:49;22.17;;;7.90;;
19507;SDS011;40157;42.566;27.526;2023-09-18T05:30:50;39.13;;;13.93;;
19507;SDS011;40157;42.566;27.526;2023-09-18T05:32:51;46.97;;;16.35;;
19507;SDS011;40157;42.566;27.526;2023-09-18T05:34:51;50.83;;;18.30;;
19507;SDS011;40157;42.566;27.526;2023-09-18T05:36:52;48.63;;;17.42;;
19507;SDS011;40157;42.566;27.526;2023-09-18T05:38:52;48.83;;;16.98;;
19507;SDS011;40157;42.566;27.526;2023-09-18T05:40:53;50.42;;;14.63;;
19507;SDS011;40157;42.566;27.526;2023-09-18T05:42:54;41.33;;;14.00;;
19507;SDS011;40157;42.566;27.526;2023-09-18T05:44:55;34.05;;;12.77;;
19507;SDS011;40157;42.566;27.526;2023-09-18T05:46:56;31.10;;;10.77;;
19507;SDS011;40157;42.566;27.526;2023-09-18T05:48:56;27.40;;;9.60;;
19507;SDS011;40157;42.566;27.526;2023-09-18T05:50:58;33.65;;;13.25;;
19507;SDS011;40157;42.566;27.526;2023-09-18T05:52:59;18.42;;;8.52;;
19507;SDS011;40157;42.566;27.526;2023-09-18T05:55:01;19.98;;;8.70;;
19507;SDS011;40157;42.566;27.526;2023-09-18T05:57:02;17.30;;;8.18;;
19507;SDS011;40157;42.566;27.526;2023-09-18T05:59:03;15.30;;;7.65;;
19507;SDS011;40157;42.566;27.526;2023-09-18T06:01:04;14.40;;;7.30;;
19507;SDS011;40157;42.566;27.526;2023-09-18T06:03:05;17.50;;;7.97;;
19507;SDS011;40157;42.566;27.526;2023-09-18T06:05:06;14.88;;;7.25;;
19507;SDS011;40157;42.566;27.526;2023-09-18T06:07:07;13.05;;;7.40;;
19507;SDS011;40157;42.566;27.526;2023-09-18T06:09:07;15.13;;;8.00;;
19507;SDS011;40157;42.566;27.526;2023-09-18T06:11:07;13.82;;;7.28;;
19507;SDS011;40157;42.566;27.526;2023-09-18T06:13:08;19.35;;;7.43;;
19507;SDS011;40157;42.566;27.526;2023-09-18T06:15:09;13.60;;;6.78;;
19507;SDS011;40157;42.566;27.526;2023-09-18T06:17:10;15.10;;;7.10;;
19507;SDS011;40157;42.566;27.526;2023-09-18T06:19:10;11.50;;;6.75;;
19507;SDS011;40157;42.566;27.526;2023-09-18T06:21:11;11.80;;;6.57;;
19507;SDS011;40157;42.566;27.526;2023-09-18T06:23:11;12.13;;;6.78;;
19507;SDS011;40157;42.566;27.526;2023-09-18T06:25:12;12.63;;;6.72;;
19507;SDS011;40157;42.566;27.526;2023-09-18T06:27:14;11.30;;;6.00;;
19507;SDS011;40157;42.566;27.526;2023-09-18T06:29:15;9.90;;;6.15;;
19507;SDS011;40157;42.566;27.526;2023-09-18T06:31:15;11.13;;;6.05;;
19507;SDS011;40157;42.566;27.526;2023-09-18T06:33:16;10.00;;;6.63;;
19507;SDS011;40157;42.566;27.526;2023-09-18T06:35:17;10.25;;;5.93;;
19507;SDS011;40157;42.566;27.526;2023-09-18T06:37:17;9.80;;;5.75;;
19507;SDS011;40157;42.566;27.526;2023-09-18T06:39:18;12.70;;;5.57;;
19507;SDS011;40157;42.566;27.526;2023-09-18T06:41:20;11.38;;;5.68;;
19507;SDS011;40157;42.566;27.526;2023-09-18T06:43:20;10.35;;;5.55;;
19507;SDS011;40157;42.566;27.526;2023-09-18T06:45:23;11.27;;;6.43;;
19507;SDS011;40157;42.566;27.526;2023-09-18T06:47:23;8.60;;;6.05;;
19507;SDS011;40157;42.566;27.526;2023-09-18T06:49:26;9.73;;;5.30;;
19507;SDS011;40157;42.566;27.526;2023-09-18T06:51:27;11.90;;;6.05;;
19507;SDS011;40157;42.566;27.526;2023-09-18T06:53:28;8.52;;;5.47;;
19507;SDS011;40157;42.566;27.526;2023-09-18T06:55:28;11.85;;;5.88;;
19507;SDS011;40157;42.566;27.526;2023-09-18T06:57:29;6.90;;;4.85;;
19507;SDS011;40157;42.566;27.526;2023-09-18T06:59:29;12.73;;;5.53;;
19507;SDS011;40157;42.566;27.526;2023-09-18T07:01:30;9.00;;;5.45;;
19507;SDS011;40157;42.566;27.526;2023-09-18T07:03:31;8.32;;;5.28;;
19507;SDS011;40157;42.566;27.526;2023-09-18T07:05:34;8.27;;;5.25;;
19507;SDS011;40157;42.566;27.526;2023-09-18T07:07:35;9.10;;;4.68;;
19507;SDS011;40157;42.566;27.526;2023-09-18T07:09:35;7.57;;;4.57;;
19507;SDS011;40157;42.566;27.526;2023-09-18T07:11:35;7.53;;;4.63;;
19507;SDS011;40157;42.566;27.526;2023-09-18T07:13:37;8.25;;;5.15;;
19507;SDS011;40157;42.566;27.526;2023-09-18T07:15:38;9.20;;;4.75;;
19507;SDS011;40157;42.566;27.526;2023-09-18T07:17:38;7.18;;;4.70;;
19507;SDS011;40157;42.566;27.526;2023-09-18T07:19:39;8.02;;;4.80;;
19507;SDS011;40157;42.566;27.526;2023-09-18T07:21:39;9.52;;;4.90;;
19507;SDS011;40157;42.566;27.526;2023-09-18T07:23:41;8.35;;;4.88;;
19507;SDS011;40157;42.566;27.526;2023-09-18T07:25:42;12.13;;;5.10;;
19507;SDS011;40157;42.566;27.526;2023-09-18T07:27:43;12.32;;;4.70;;
19507;SDS011;40157;42.566;27.526;2023-09-18T07:29:44;8.23;;;4.82;;
19507;SDS011;40157;42.566;27.526;2023-09-18T07:31:44;7.95;;;5.30;;
19507;SDS011;40157;42.566;27.526;2023-09-18T07:33:46;9.38;;;5.30;;
19507;SDS011;40157;42.566;27.526;2023-09-18T07:35:48;8.95;;;4.32;;
19507;SDS011;40157;42.566;27.526;2023-09-18T07:37:51;14.73;;;5.60;;
19507;SDS011;40157;42.566;27.526;2023-09-18T07:39:52;8.43;;;4.85;;
19507;SDS011;40157;42.566;27.526;2023-09-18T07:41:52;5.88;;;4.53;;
19507;SDS011;40157;42.566;27.526;2023-09-18T07:43:53;7.00;;;4.80;;
19507;SDS011;40157;42.566;27.526;2023-09-18T07:45:53;8.02;;;4.93;;
19507;SDS011;40157;42.566;27.526;2023-09-18T07:47:54;6.70;;;4.90;;
19507;SDS011;40157;42.566;27.526;2023-09-18T07:49:56;9.20;;;5.15;;
19507;SDS011;40157;42.566;27.526;2023-09-18T07:51:57;16.17;;;4.90;;
19507;SDS011;40157;42.566;27.526;2023-09-18T07:53:57;10.07;;;4.78;;
19507;SDS011;40157;42.566;27.526;2023-09-18T07:55:58;10.68;;;4.88;;
19507;SDS011;40157;42.566;27.526;2023-09-18T07:57:59;9.95;;;4.45;;
19507;SDS011;40157;42.566;27.526;2023-09-18T07:59:59;7.78;;;4.72;;
19507;SDS011;40157;42.566;27.526;2023-09-18T08:02:06;8.38;;;4.88;;
19507;SDS011;40157;42.566;27.526;2023-09-18T08:04:09;12.60;;;5.35;;
19507;SDS011;40157;42.566;27.526;2023-09-18T08:06:09;8.75;;;5.25;;
19507;SDS011;40157;42.566;27.526;2023-09-18T08:08:11;7.95;;;5.00;;
19507;SDS011;40157;42.566;27.526;2023-09-18T08:10:13;7.53;;;4.78;;
19507;SDS011;40157;42.566;27.526;2023-09-18T08:12:13;11.82;;;4.50;;
19507;SDS011;40157;42.566;27.526;2023-09-18T08:14:14;10.15;;;4.93;;
19507;SDS011;40157;42.566;27.526;2023-09-18T08:16:14;7.75;;;4.70;;
19507;SDS011;40157;42.566;27.526;2023-09-18T08:18:15;8.32;;;4.90;;
19507;SDS011;40157;42.566;27.526;2023-09-18T08:20:16;9.35;;;5.20;;
19507;SDS011;40157;42.566;27.526;2023-09-18T08:22:16;6.85;;;4.68;;
19507;SDS011;40157;42.566;27.526;2023-09-18T08:24:19;7.07;;;4.88;;
19507;SDS011;40157;42.566;27.526;2023-09-18T08:26:19;6.70;;;4.60;;
19507;SDS011;40157;42.566;27.526;2023-09-18T08:28:20;9.88;;;5.32;;
19507;SDS011;40157;42.566;27.526;2023-09-18T08:30:20;10.15;;;5.10;;
19507;SDS011;40157;42.566;27.526;2023-09-18T08:32:21;13.70;;;4.97;;
19507;SDS011;40157;42.566;27.526;2023-09-18T08:34:21;13.07;;;5.57;;
19507;SDS011;40157;42.566;27.526;2023-09-18T08:36:22;7.53;;;4.80;;
19507;SDS011;40157;42.566;27.526;2023-09-18T08:38:22;11.05;;;5.35;;
19507;SDS011;40157;42.566;27.526;2023-09-18T08:40:23;8.93;;;5.43;;
19507;SDS011;40157;42.566;27.526;2023-09-18T08:42:23;7.55;;;4.72;;
19507;SDS011;40157;42.566;27.526;2023-09-18T08:44:26;11.77;;;6.15;;
19507;SDS011;40157;42.566;27.526;2023-09-18T08:46:27;10.27;;;5.22;;
19507;SDS011;40157;42.566;27.526;2023-09-18T08:48:28;9.25;;;5.18;;
19507;SDS011;40157;42.566;27.526;2023-09-18T08:50:35;8.07;;;4.72;;
19507;SDS011;40157;42.566;27.526;2023-09-18T08:52:37;11.60;;;4.78;;
19507;SDS011;40157;42.566;27.526;2023-09-18T08:54:40;8.20;;;5.30;;
19507;SDS011;40157;42.566;27.526;2023-09-18T08:56:40;8.52;;;5.13;;
19507;SDS011;40157;42.566;27.526;2023-09-18T08:58:41;9.05;;;4.85;;
19507;SDS011;40157;42.566;27.526;2023-09-18T09:00:42;9.32;;;4.93;;
19507;SDS011;40157;42.566;27.526;2023-09-18T09:02:43;11.18;;;6.30;;
19507;SDS011;40157;42.566;27.526;2023-09-18T09:04:44;35.97;;;11.93;;
19507;SDS011;40157;42.566;27.526;2023-09-18T09:06:45;49.40;;;16.35;;
19507;SDS011;40157;42.566;27.526;2023-09-18T09:08:45;22.52;;;7.85;;
19507;SDS011;40157;42.566;27.526;2023-09-18T09:10:45;39.65;;;17.33;;
19507;SDS011;40157;42.566;27.526;2023-09-18T09:12:53;29.48;;;11.55;;
19507;SDS011;40157;42.566;27.526;2023-09-18T09:15:01;28.95;;;11.43;;
19507;SDS011;40157;42.566;27.526;2023-09-18T09:17:03;20.55;;;9.30;;
19507;SDS011;40157;42.566;27.526;2023-09-18T09:19:04;30.55;;;10.98;;
19507;SDS011;40157;42.566;27.526;2023-09-18T09:21:04;18.48;;;6.97;;
19507;SDS011;40157;42.566;27.526;2023-09-18T09:23:06;10.32;;;5.43;;
19507;SDS011;40157;42.566;27.526;2023-09-18T09:27:20;15.93;;;7.15;;
19507;SDS011;40157;42.566;27.526;2023-09-18T09:29:20;17.42;;;7.45;;
19507;SDS011;40157;42.566;27.526;2023-09-18T09:31:29;9.50;;;5.03;;
19507;SDS011;40157;42.566;27.526;2023-09-18T09:33:30;13.63;;;6.80;;
19507;SDS011;40157;42.566;27.526;2023-09-18T09:35:33;20.15;;;6.90;;
19507;SDS011;40157;42.566;27.526;2023-09-18T09:37:35;26.48;;;5.90;;
19507;SDS011;40157;42.566;27.526;2023-09-18T09:39:48;16.75;;;5.07;;
19507;SDS011;40157;42.566;27.526;2023-09-18T09:41:52;7.88;;;4.05;;
19507;SDS011;40157;42.566;27.526;2023-09-18T09:43:52;6.45;;;4.05;;
19507;SDS011;40157;42.566;27.526;2023-09-18T09:45:58;9.48;;;4.47;;
19507;SDS011;40157;42.566;27.526;2023-09-18T09:47:59;9.05;;;4.80;;
19507;SDS011;40157;42.566;27.526;2023-09-18T09:50:11;7.72;;;4.18;;
19507;SDS011;40157;42.566;27.526;2023-09-18T09:52:19;7.72;;;4.05;;
19507;SDS011;40157;42.566;27.526;2023-09-18T09:54:32;7.38;;;4.00;;
19507;SDS011;40157;42.566;27.526;2023-09-18T09:56:45;13.63;;;5.18;;
19507;SDS011;40157;42.566;27.526;2023-09-18T09:59:04;10.45;;;4.53;;
19507;SDS011;40157;42.566;27.526;2023-09-18T10:01:08;13.73;;;4.25;;
19507;SDS011;40157;42.566;27.526;2023-09-18T10:03:11;6.22;;;4.25;;
19507;SDS011;40157;42.566;27.526;2023-09-18T10:05:16;6.43;;;3.75;;
19507;SDS011;40157;42.566;27.526;2023-09-18T10:07:19;20.40;;;7.03;;
19507;SDS011;40157;42.566;27.526;2023-09-18T10:09:20;9.45;;;4.85;;
19507;SDS011;40157;42.566;27.526;2023-09-18T10:11:22;27.20;;;7.93;;
19507;SDS011;40157;42.566;27.526;2023-09-18T10:13:32;13.10;;;5.90;;
19507;SDS011;40157;42.566;27.526;2023-09-18T10:15:53;12.02;;;4.63;;
19507;SDS011;40157;42.566;27.526;2023-09-18T10:17:56;17.60;;;5.43;;
19507;SDS011;40157;42.566;27.526;2023-09-18T10:22:30;8.18;;;4.15;;
19507;SDS011;40157;42.566;27.526;2023-09-18T10:24:37;7.82;;;4.05;;
19507;SDS011;40157;42.566;27.526;2023-09-18T10:26:44;10.55;;;4.68;;
19507;SDS011;40157;42.566;27.526;2023-09-18T10:28:51;7.40;;;4.43;;
19507;SDS011;40157;42.566;27.526;2023-09-18T10:30:56;6.65;;;4.00;;
19507;SDS011;40157;42.566;27.526;2023-09-18T10:32:58;8.32;;;4.22;;
19507;SDS011;40157;42.566;27.526;2023-09-18T10:35:01;73.78;;;7.78;;
19507;SDS011;40157;42.566;27.526;2023-09-18T10:37:03;27.42;;;6.55;;
19507;SDS011;40157;42.566;27.526;2023-09-18T10:39:08;13.20;;;4.13;;
19507;SDS011;40157;42.566;27.526;2023-09-18T10:41:12;6.30;;;3.90;;
19507;SDS011;40157;42.566;27.526;2023-09-18T10:43:13;8.20;;;3.80;;
19507;SDS011;40157;42.566;27.526;2023-09-18T10:45:16;16.63;;;4.47;;
19507;SDS011;40157;42.566;27.526;2023-09-18T10:47:16;28.77;;;4.75;;
19507;SDS011;40157;42.566;27.526;2023-09-18T10:49:18;9.77;;;4.43;;
19507;SDS011;40157;42.566;27.526;2023-09-18T10:51:23;8.13;;;4.30;;
19507;SDS011;40157;42.566;27.526;2023-09-18T10:53:25;9.55;;;4.03;;
19507;SDS011;40157;42.566;27.526;2023-09-18T10:55:26;16.15;;;4.18;;
19507;SDS011;40157;42.566;27.526;2023-09-18T10:57:27;18.88;;;4.25;;
19507;SDS011;40157;42.566;27.526;2023-09-18T10:59:27;10.93;;;3.83;;
19507;SDS011;40157;42.566;27.526;2023-09-18T11:01:31;9.18;;;4.10;;
19507;SDS011;40157;42.566;27.526;2023-09-18T11:03:33;12.15;;;4.70;;
19507;SDS011;40157;42.566;27.526;2023-09-18T11:05:34;9.25;;;4.55;;
19507;SDS011;40157;42.566;27.526;2023-09-18T11:07:35;6.35;;;3.72;;
19507;SDS011;40157;42.566;27.526;2023-09-18T11:09:42;36.55;;;8.32;;
19507;SDS011;40157;42.566;27.526;2023-09-18T11:11:44;34.72;;;13.93;;
19507;SDS011;40157;42.566;27.526;2023-09-18T11:13:45;17.35;;;4.95;;
19507;SDS011;40157;42.566;27.526;2023-09-18T11:15:52;11.98;;;6.15;;
19507;SDS011;40157;42.566;27.526;2023-09-18T11:17:59;15.90;;;9.10;;
19507;SDS011;40157;42.566;27.526;2023-09-18T11:22:09;15.30;;;8.02;;
19507;SDS011;40157;42.566;27.526;2023-09-18T11:24:17;16.75;;;7.30;;
19507;SDS011;40157;42.566;27.526;2023-09-18T11:26:20;12.65;;;4.38;;
19507;SDS011;40157;42.566;27.526;2023-09-18T11:28:24;8.02;;;3.97;;
19507;SDS011;40157;42.566;27.526;2023-09-18T11:30:25;9.18;;;4.32;;
19507;SDS011;40157;42.566;27.526;2023-09-18T11:32:38;12.40;;;4.07;;
19507;SDS011;40157;42.566;27.526;2023-09-18T11:34:40;6.20;;;3.88;;
19507;SDS011;40157;42.566;27.526;2023-09-18T11:36:42;16.55;;;4.35;;
19507;SDS011;40157;42.566;27.526;2023-09-18T11:38:56;8.88;;;4.50;;
19507;SDS011;40157;42.566;27.526;2023-09-18T11:43:26;16.38;;;3.70;;
19507;SDS011;40157;42.566;27.526;2023-09-18T11:45:31;5.97;;;3.78;;
19507;SDS011;40157;42.566;27.526;2023-09-18T11:47:33;23.27;;;4.60;;
19507;SDS011;40157;42.566;27.526;2023-09-18T11:49:46;20.92;;;4.38;;
19507;SDS011;40157;42.566;27.526;2023-09-18T11:51:53;12.00;;;3.83;;
19507;SDS011;40157;42.566;27.526;2023-09-18T11:53:55;13.23;;;4.10;;
19507;SDS011;40157;42.566;27.526;2023-09-18T11:55:57;8.73;;;3.80;;
19507;SDS011;40157;42.566;27.526;2023-09-18T11:57:58;8.32;;;3.58;;
19507;SDS011;40157;42.566;27.526;2023-09-18T12:00:01;6.95;;;3.78;;
19507;SDS011;40157;42.566;27.526;2023-09-18T12:02:33;10.45;;;4.40;;
19507;SDS011;40157;42.566;27.526;2023-09-18T12:04:36;5.68;;;2.83;;
19507;SDS011;40157;42.566;27.526;2023-09-18T12:06:38;10.38;;;3.42;;
19507;SDS011;40157;42.566;27.526;2023-09-18T12:08:39;5.85;;;3.40;;
19507;SDS011;40157;42.566;27.526;2023-09-18T12:10:41;7.65;;;4.07;;
19507;SDS011;40157;42.566;27.526;2023-09-18T12:12:41;6.18;;;3.75;;